Time,TemperatureF,DewpointF,PressureIn,WindDirection,WindDirectionDegrees,WindSpeedMPH,WindSpeedGustMPH,Humidity,HourlyPrecipIn,Conditions,Clouds,dailyrainin,SoftwareType,DateUTC
2013-08-18 00:01:00,71.0,40.0,-100.00,WSW,243,4.0,9.0,33,0.00,,,-99.99,,2013-08-18 07:01:00,
2013-08-18 00:42:00,61.0,53.0,-100.00,ENE,66,12.0,17.0,75,0.00,,,-99.99,,2013-08-18 07:42:00,
2013-08-18 00:52:00,61.0,53.0,-100.00,South,185,5.0,14.0,74,0.00,,,-99.99,,2013-08-18 07:52:00,
2013-08-18 01:01:00,61.0,53.0,-100.00,South,185,5.0,14.0,74,0.00,,,-99.99,,2013-08-18 08:01:00,
2013-08-18 01:21:00,60.0,53.0,-100.00,SE,131,4.0,6.0,78,0.00,,,-99.99,,2013-08-18 08:21:00,
2013-08-18 01:41:00,60.0,52.0,-100.00,SE,127,7.0,10.0,76,0.00,,,-99.99,,2013-08-18 08:41:00,
2013-08-18 01:52:00,60.0,52.0,-100.00,SE,127,7.0,10.0,76,0.00,,,-99.99,,2013-08-18 08:52:00,
2013-08-18 02:11:00,61.0,51.0,-100.00,ESE,104,6.0,8.0,70,0.00,,,-99.99,,2013-08-18 09:11:00,
2013-08-18 02:21:00,61.0,51.0,-100.00,ESE,104,6.0,8.0,70,0.00,,,-99.99,,2013-08-18 09:21:00,
2013-08-18 02:42:00,60.0,52.0,-100.00,ESE,112,5.0,8.0,74,0.00,,,-99.99,,2013-08-18 09:42:00,
2013-08-18 02:53:00,60.0,51.0,-100.00,SSE,148,5.0,7.0,71,0.00,,,-99.99,,2013-08-18 09:53:00,
2013-08-18 03:03:00,60.0,51.0,-100.00,SSE,148,5.0,7.0,71,0.00,,,-99.99,,2013-08-18 10:03:00,
2013-08-18 03:42:00,59.0,51.0,-100.00,SE,143,7.0,11.0,74,0.00,,,-99.99,,2013-08-18 10:42:00,
2013-08-18 03:52:00,59.0,50.0,-100.00,SE,124,7.0,10.0,71,0.00,,,-99.99,,2013-08-18 10:52:00,
2013-08-18 04:02:00,59.0,50.0,-100.00,SE,124,7.0,10.0,71,0.00,,,-99.99,,2013-08-18 11:02:00,
2013-08-18 04:42:00,57.0,49.0,-100.00,SE,136,6.0,8.0,74,0.00,,,-99.99,,2013-08-18 11:42:00,
2013-08-18 05:11:00,56.0,49.0,-100.00,ESE,121,7.0,9.0,76,0.00,,,-99.99,,2013-08-18 12:11:00,
2013-08-18 05:21:00,55.0,47.0,-100.00,East,99,9.0,11.0,75,0.00,,,-99.99,,2013-08-18 12:21:00,
2013-08-18 05:41:00,57.0,48.0,-100.00,East,99,11.0,13.0,72,0.00,,,-99.99,,2013-08-18 12:41:00,
2013-08-18 05:52:00,57.0,48.0,-100.00,East,99,11.0,13.0,72,0.00,,,-99.99,,2013-08-18 12:52:00,
2013-08-18 06:11:00,60.0,47.0,-100.00,ESE,113,11.0,13.0,61,0.00,,,-99.99,,2013-08-18 13:11:00,
2013-08-18 06:21:00,60.0,47.0,-100.00,SSE,160,3.0,9.0,61,0.00,,,-99.99,,2013-08-18 13:21:00,
2013-08-18 06:42:00,56.0,47.0,-100.00,ENE,69,0.0,2.0,72,0.00,,,-99.99,,2013-08-18 13:42:00,
2013-08-18 07:11:00,58.0,47.0,-100.00,ENE,58,0.0,4.0,67,0.00,,,-99.99,,2013-08-18 14:11:00,
2013-08-18 07:21:00,58.0,47.0,-100.00,ENE,58,0.0,4.0,67,0.00,,,-99.99,,2013-08-18 14:21:00,
2013-08-18 07:42:00,56.0,47.0,-100.00,NNW,328,0.0,3.0,72,0.00,,,-99.99,,2013-08-18 14:42:00,
2013-08-18 07:53:00,56.0,47.0,-100.00,NNW,328,0.0,3.0,72,0.00,,,-99.99,,2013-08-18 14:53:00,
2013-08-18 08:01:00,56.0,47.0,-100.00,NNW,328,0.0,3.0,72,0.00,,,-99.99,,2013-08-18 15:01:00,
2013-08-18 08:22:00,61.0,49.0,-100.00,North,-999,0.0,0.0,65,0.00,,,-99.99,,2013-08-18 15:22:00,
2013-08-18 08:33:00,61.0,49.0,-100.00,North,-999,0.0,0.0,65,0.00,,,-99.99,,2013-08-18 15:33:00,
2013-08-18 08:43:00,61.0,49.0,-100.00,North,-999,0.0,0.0,65,0.00,,,-99.99,,2013-08-18 15:43:00,
2013-08-18 09:13:00,67.0,49.0,-100.00,North,-999,0.0,0.0,52,0.00,,,-99.99,,2013-08-18 16:13:00,
2013-08-18 09:23:00,67.0,49.0,-100.00,North,-999,0.0,0.0,52,0.00,,,-99.99,,2013-08-18 16:23:00,
2013-08-18 09:42:00,73.0,43.0,-100.00,SSE,147,5.0,11.0,34,0.00,,,-99.99,,2013-08-18 16:42:00,
2013-08-18 09:52:00,73.0,43.0,-100.00,SSE,147,5.0,11.0,34,0.00,,,-99.99,,2013-08-18 16:52:00,
2013-08-18 10:02:00,73.0,43.0,-100.00,SSE,147,5.0,11.0,34,0.00,,,-99.99,,2013-08-18 17:02:00,
2013-08-18 10:12:00,73.0,43.0,-100.00,SSE,147,5.0,11.0,34,0.00,,,-99.99,,2013-08-18 17:12:00,
2013-08-18 10:23:00,78.0,44.0,-100.00,South,184,7.0,11.0,30,0.00,,,-99.99,,2013-08-18 17:23:00,
2013-08-18 10:42:00,80.0,41.0,-100.00,SW,229,4.0,11.0,25,0.00,,,-99.99,,2013-08-18 17:42:00,
2013-08-18 11:12:00,82.0,41.0,-100.00,South,172,3.0,8.0,23,0.00,,,-99.99,,2013-08-18 18:12:00,
2013-08-18 11:21:00,82.0,41.0,-100.00,South,172,3.0,8.0,23,0.00,,,-99.99,,2013-08-18 18:21:00,
2013-08-18 11:42:00,82.0,37.0,-100.00,NNE,32,3.0,6.0,20,0.00,,,-99.99,,2013-08-18 18:42:00,
2013-08-18 12:11:00,81.0,37.0,-100.00,ENE,62,4.0,11.0,21,0.00,,,-99.99,,2013-08-18 19:11:00,
2013-08-18 12:22:00,81.0,37.0,-100.00,NW,325,6.0,11.0,21,0.00,,,-99.99,,2013-08-18 19:22:00,
2013-08-18 12:41:00,81.0,36.0,-100.00,NW,326,5.0,17.0,20,0.00,,,-99.99,,2013-08-18 19:41:00,
2013-08-18 13:22:00,78.0,42.0,-100.00,NE,38,6.0,11.0,28,0.00,,,-99.99,,2013-08-18 20:22:00,
2013-08-18 13:32:00,78.0,42.0,-100.00,NE,38,6.0,11.0,28,0.00,,,-99.99,,2013-08-18 20:32:00,
2013-08-18 14:42:00,74.0,40.0,-100.00,SSE,152,15.0,21.0,29,0.00,,,-99.99,,2013-08-18 21:42:00,
2013-08-18 14:53:00,74.0,40.0,-100.00,SSE,152,15.0,21.0,29,0.00,,,-99.99,,2013-08-18 21:53:00,
2013-08-18 15:03:00,74.0,40.0,-100.00,SSE,152,15.0,21.0,29,0.00,,,-99.99,,2013-08-18 22:03:00,
2013-08-18 15:12:00,74.0,40.0,-100.00,SSE,152,15.0,21.0,29,0.00,,,-99.99,,2013-08-18 22:12:00,
2013-08-18 15:23:00,72.0,46.0,-100.00,North,-999,-999.0,-999.0,39,0.00,,,-99.99,,2013-08-18 22:23:00,
2013-08-18 15:42:00,72.0,46.0,-100.00,NW,315,20.0,29.0,39,0.00,,,-99.99,,2013-08-18 22:42:00,
2013-08-18 15:52:00,72.0,46.0,-100.00,NW,315,20.0,29.0,39,0.00,,,-99.99,,2013-08-18 22:52:00,
2013-08-18 16:01:00,79.0,38.0,-100.00,North,356,17.0,27.0,23,0.00,,,-99.99,,2013-08-18 23:01:00,
2013-08-18 16:22:00,77.0,39.0,-100.00,NNW,342,20.0,30.0,26,0.00,,,-99.99,,2013-08-18 23:22:00,
2013-08-18 16:42:00,79.0,38.0,-100.00,North,356,17.0,27.0,23,0.00,,,-99.99,,2013-08-18 23:42:00,
2013-08-18 16:52:00,79.0,38.0,-100.00,North,356,17.0,27.0,23,0.00,,,-99.99,,2013-08-18 23:52:00,
2013-08-18 17:21:00,82.0,37.0,-100.00,NNW,344,10.0,17.0,20,0.00,,,-99.99,,2013-08-19 00:21:00,
2013-08-18 17:31:00,82.0,37.0,-100.00,NNW,344,10.0,17.0,20,0.00,,,-99.99,,2013-08-19 00:31:00,
2013-08-18 17:52:00,82.0,36.0,-100.00,SE,133,6.0,14.0,19,0.00,,,-99.99,,2013-08-19 00:52:00,
2013-08-18 18:02:00,82.0,36.0,-100.00,SE,133,6.0,14.0,19,0.00,,,-99.99,,2013-08-19 01:02:00,
2013-08-18 18:11:00,82.0,36.0,-100.00,SE,133,6.0,14.0,19,0.00,,,-99.99,,2013-08-19 01:11:00,
2013-08-18 18:22:00,82.0,36.0,-100.00,SE,133,6.0,14.0,19,0.00,,,-99.99,,2013-08-19 01:22:00,
2013-08-18 18:42:00,79.0,39.0,-100.00,ESE,117,8.0,13.0,24,0.00,,,-99.99,,2013-08-19 01:42:00,
2013-08-18 18:52:00,76.0,40.0,-100.00,SE,141,8.0,23.0,27,0.00,,,-99.99,,2013-08-19 01:52:00,
2013-08-18 19:11:00,74.0,41.0,-100.00,SSE,160,9.0,16.0,30,0.00,,,-99.99,,2013-08-19 02:11:00,
2013-08-18 19:21:00,74.0,41.0,-100.00,SSE,160,9.0,16.0,30,0.00,,,-99.99,,2013-08-19 02:21:00,
2013-08-18 19:42:00,73.0,41.0,-100.00,SSW,200,8.0,11.0,31,0.00,,,-99.99,,2013-08-19 02:42:00,
2013-08-18 19:52:00,73.0,40.0,-100.00,South,184,10.0,15.0,30,0.00,,,-99.99,,2013-08-19 02:52:00,
2013-08-18 20:11:00,72.0,39.0,-100.00,SSW,192,10.0,16.0,30,0.00,,,-99.99,,2013-08-19 03:11:00,
2013-08-18 20:21:00,72.0,39.0,-100.00,SSW,192,10.0,16.0,30,0.00,,,-99.99,,2013-08-19 03:21:00,
2013-08-18 20:42:00,73.0,40.0,-100.00,SW,215,14.0,22.0,30,0.00,,,-99.99,,2013-08-19 03:42:00,
2013-08-18 20:53:00,73.0,40.0,-100.00,SW,215,14.0,22.0,30,0.00,,,-99.99,,2013-08-19 03:53:00,
2013-08-18 21:12:00,71.0,40.0,-100.00,SW,234,6.0,13.0,32,0.00,,,-99.99,,2013-08-19 04:12:00,
2013-08-18 21:23:00,71.0,40.0,-100.00,SW,234,6.0,13.0,32,0.00,,,-99.99,,2013-08-19 04:23:00,
2013-08-18 21:33:00,71.0,40.0,-100.00,SW,234,6.0,13.0,32,0.00,,,-99.99,,2013-08-19 04:33:00,
2013-08-18 21:42:00,71.0,40.0,-100.00,SW,234,6.0,13.0,32,0.00,,,-99.99,,2013-08-19 04:42:00,
2013-08-18 21:53:00,67.0,41.0,-100.00,ESE,123,6.0,8.0,38,0.00,,,-99.99,,2013-08-19 04:53:00,
2013-08-18 22:02:00,67.0,41.0,-100.00,ESE,123,6.0,8.0,38,0.00,,,-99.99,,2013-08-19 05:02:00,
2013-08-18 22:42:00,67.0,42.0,-100.00,East,96,5.0,8.0,40,0.00,,,-99.99,,2013-08-19 05:42:00,
2013-08-18 22:52:00,66.0,42.0,-100.00,SSE,168,4.0,8.0,41,0.00,,,-99.99,,2013-08-19 05:52:00,
2013-08-18 23:01:00,66.0,42.0,-100.00,SSE,168,4.0,8.0,41,0.00,,,-99.99,,2013-08-19 06:01:00,
2013-08-18 23:11:00,66.0,42.0,-100.00,SSE,168,4.0,8.0,41,0.00,,,-99.99,,2013-08-19 06:11:00,
2013-08-18 23:21:00,66.0,42.0,-100.00,SSE,168,4.0,8.0,41,0.00,,,-99.99,,2013-08-19 06:21:00,
2013-08-18 23:42:00,68.0,45.0,-100.00,South,172,13.0,19.0,43,0.00,,,-99.99,,2013-08-19 06:42:00,
2013-08-18 23:52:00,68.0,45.0,-100.00,South,172,13.0,19.0,43,0.00,,,-99.99,,2013-08-19 06:52:00,